Time;durP1;ratioP1;P1;durP2;ratioP2;P2;SDS_P1;SDS_P2;PMS_P1;PMS_P2;Temp;Humidity;BMP_temperature;BMP_pressure;BME280_temperature;BME280_humidity;BME280_pressure;Samples;Min_cycle;Max_cycle;Signal;HPM_P1;HPM_P2
2021/03/11 00:01:41;;;;;;;1.70;1.40;;;;;;;2.94;85.94;100408.81;4998162;28;20041;-70
2021/03/11 00:04:07;;;;;;;8.57;3.97;;;;;;;2.95;86.56;100402.91;5032038;28;20463;-71
2021/03/11 00:06:32;;;;;;;33.17;8.93;;;;;;;2.92;86.16;100401.03;5033009;28;20026;-71
2021/03/11 00:08:57;;;;;;;52.67;13.57;;;;;;;2.87;86.38;100388.78;5031724;28;20656;-71
2021/03/11 00:11:23;;;;;;;65.07;13.93;;;;;;;2.86;86.33;100399.78;5031073;28;20032;-71
2021/03/11 00:13:48;;;;;;;19.70;6.17;;;;;;;2.72;86.78;100386.09;5035373;28;20028;-69
2021/03/11 00:16:14;;;;;;;11.90;3.97;;;;;;;2.82;87.24;100403.78;5031726;28;20105;-70
2021/03/11 00:18:39;;;;;;;13.23;4.80;;;;;;;2.91;86.68;100395.84;5036713;28;20032;-70
2021/03/11 00:21:05;;;;;;;21.67;6.70;;;;;;;2.77;86.96;100388.94;5040754;28;20546;-69
2021/03/11 00:23:30;;;;;;;6.80;2.17;;;;;;;2.77;86.99;100397.50;5044664;28;20100;-70
2021/03/11 00:25:56;;;;;;;19.57;6.87;;;;;;;2.77;87.57;100399.13;5034882;28;20083;-70
2021/03/11 00:28:21;;;;;;;39.40;12.67;;;;;;;2.65;87.31;100394.13;5034982;28;20025;-70
2021/03/11 00:30:47;;;;;;;12.90;11.67;;;;;;;2.69;87.48;100403.72;5043072;28;20037;-70
2021/03/11 00:33:12;;;;;;;35.37;32.20;;;;;;;2.66;87.78;100409.50;5038884;28;20084;-70
2021/03/11 00:35:38;;;;;;;5.13;4.20;;;;;;;2.63;87.88;100404.22;5020570;28;20117;-68
2021/03/11 00:38:03;;;;;;;1.33;1.23;;;;;;;2.70;88.76;100400.41;4996821;28;20030;-70
2021/03/11 00:40:29;;;;;;;1.80;1.67;;;;;;;2.71;88.02;100405.59;4997033;28;20034;-69
2021/03/11 00:42:54;;;;;;;1.83;1.37;;;;;;;2.48;88.20;100370.03;5005204;28;20497;-67
2021/03/11 00:45:20;;;;;;;1.20;0.90;;;;;;;2.42;87.96;100356.09;5005451;28;20087;-69
2021/03/11 00:47:45;;;;;;;1.00;0.90;;;;;;;2.59;88.00;100392.03;4998638;28;20168;-70
2021/03/11 00:50:14;;;;;;;0.60;0.60;;;;;;;2.65;88.06;100397.53;4995189;28;20411;-71
2021/03/11 00:52:40;;;;;;;0.80;0.80;;;;;;;2.59;88.67;100389.47;4994098;28;20467;-71
2021/03/11 00:55:11;;;;;;;30.63;9.17;;;;;;;2.60;89.01;100396.34;4997008;28;20117;-71
2021/03/11 00:57:37;;;;;;;20.20;5.30;;;;;;;2.49;88.99;100385.41;4997690;28;20493;-71
2021/03/11 01:00:06;;;;;;;10.30;3.37;;;;;;;2.50;88.65;100399.94;4984270;28;20041;-69
2021/03/11 01:02:31;;;;;;;2.00;1.10;;;;;;;2.56;89.14;100409.66;4995899;28;20038;-71
2021/03/11 01:04:56;;;;;;;1.43;1.20;;;;;;;2.52;89.28;100405.16;4999062;28;20045;-70
2021/03/11 01:07:22;;;;;;;64.17;17.50;;;;;;;2.29;89.50;100370.44;4998569;28;20030;-69
2021/03/11 01:09:47;;;;;;;16.50;5.23;;;;;;;2.48;89.83;100391.31;5040445;28;20063;-70
2021/03/11 01:12:14;;;;;;;19.03;6.67;;;;;;;2.47;89.09;100398.84;5046554;28;20524;-68
2021/03/11 01:14:45;;;;;;;27.20;10.93;;;;;;;2.47;88.46;100404.84;5050176;28;20038;-69
2021/03/11 01:17:10;;;;;;;33.47;9.77;;;;;;;2.30;89.41;100375.66;5038099;28;20462;-69
2021/03/11 01:19:37;;;;;;;30.23;9.97;;;;;;;2.54;89.47;100421.41;5037384;28;20025;-69
2021/03/11 01:22:02;;;;;;;22.57;6.87;;;;;;;2.38;89.26;100388.91;5051238;28;20052;-68
2021/03/11 01:24:28;;;;;;;12.67;11.57;;;;;;;2.40;88.28;100402.63;5052937;28;20480;-70
2021/03/11 01:26:53;;;;;;;2.23;1.87;;;;;;;2.34;88.20;100409.84;5044949;28;20025;-67
2021/03/11 01:29:19;;;;;;;2.60;2.27;;;;;;;2.36;88.13;100427.00;5049240;28;20026;-68
2021/03/11 01:31:46;;;;;;;1.60;1.20;;;;;;;2.36;87.35;100429.56;5047341;28;20075;-69
2021/03/11 01:34:12;;;;;;;4.47;3.37;;;;;;;2.30;87.67;100431.69;5048362;28;20036;-69
2021/03/11 01:36:38;;;;;;;3.53;1.90;;;;;;;2.16;88.19;100414.56;5043047;28;20055;-69
2021/03/11 01:39:03;;;;;;;1.60;1.20;;;;;;;2.23;87.82;100424.38;5043915;28;20541;-70
2021/03/11 01:41:29;;;;;;;1.33;1.20;;;;;;;2.25;87.71;100444.09;5039493;28;20116;-69
2021/03/11 01:43:55;;;;;;;2.17;1.30;;;;;;;2.27;87.85;100436.59;5037930;28;20167;-70
2021/03/11 01:46:23;;;;;;;1.27;1.03;;;;;;;2.08;87.79;100420.00;5039248;28;20408;-69
2021/03/11 01:48:48;;;;;;;18.83;6.27;;;;;;;2.01;87.90;100422.91;5044966;28;20040;-68
2021/03/11 01:51:15;;;;;;;1.53;1.27;;;;;;;1.88;89.00;100400.78;5046185;28;20029;-69
2021/03/11 01:53:40;;;;;;;1.10;1.00;;;;;;;1.98;88.50;100442.16;5037310;28;20075;-71
2021/03/11 01:56:06;;;;;;;1.57;1.30;;;;;;;1.94;88.98;100449.59;5048666;28;20056;-69
2021/03/11 01:58:32;;;;;;;1.07;0.97;;;;;;;1.83;88.99;100434.31;5049912;28;20102;-69
2021/03/11 02:00:58;;;;;;;1.20;1.10;;;;;;;1.89;89.20;100447.50;5051610;28;20028;-70
2021/03/11 02:03:23;;;;;;;23.93;8.83;;;;;;;1.91;88.95;100444.28;5049277;28;20025;-70
2021/03/11 02:05:49;;;;;;;18.67;5.97;;;;;;;1.72;88.63;100447.19;5006641;28;20065;-73
2021/03/11 02:08:15;;;;;;;34.80;10.20;;;;;;;1.50;89.30;100419.28;5037572;28;20022;-69
2021/03/11 02:10:41;;;;;;;10.43;3.50;;;;;;;1.66;89.90;100462.00;5041200;28;20029;-69
2021/03/11 02:13:30;;;;;;;21.10;6.93;;;;;;;1.52;89.97;100458.47;5047109;28;20491;-69
2021/03/11 02:16:29;;;;;;;34.70;11.93;;;;;;;1.44;90.50;100462.97;5049119;28;20060;-69
2021/03/11 02:19:12;;;;;;;11.88;4.30;;;;;;;1.16;91.00;100454.09;5046530;28;20036;-69
2021/03/11 02:21:50;;;;;;;12.30;11.07;;;;;;;1.01;91.24;100444.56;5042740;28;20174;-70
2021/03/11 02:24:15;;;;;;;3.93;3.43;;;;;;;1.03;92.14;100472.63;5042525;28;20115;-69
2021/03/11 02:26:50;;;;;;;2.03;1.80;;;;;;;0.92;92.63;100474.34;5037816;28;20182;-69
2021/03/11 02:29:31;;;;;;;1.80;1.60;;;;;;;0.58;92.82;100431.16;5035870;28;20032;-69
2021/03/11 02:31:58;;;;;;;1.60;1.40;;;;;;;0.50;93.50;100427.13;5020900;28;20395;-70
2021/03/11 02:34:28;;;;;;;3.13;2.70;;;;;;;0.61;93.86;100492.34;4998597;28;20027;-69
2021/03/11 02:36:56;;;;;;;1.58;1.40;;;;;;;0.54;94.37;100485.03;4998774;28;20026;-69
2021/03/11 02:39:24;;;;;;;1.40;1.30;;;;;;;0.53;94.84;100475.66;5006848;28;20117;-69
2021/03/11 02:41:53;;;;;;;3.83;1.80;;;;;;;0.48;94.99;100496.47;5003816;28;20052;-70
2021/03/11 02:44:21;;;;;;;134.95;41.75;;;;;;;0.49;95.30;100479.59;5004041;28;20022;-69
2021/03/11 02:46:48;;;;;;;8.20;2.73;;;;;;;0.52;95.21;100496.72;5009505;28;20033;-72
2021/03/11 02:49:13;;;;;;;3.67;1.70;;;;;;;0.51;95.13;100490.75;5003727;28;20034;-69
2021/03/11 02:51:39;;;;;;;16.83;5.47;;;;;;;0.33;95.31;100464.81;4994938;28;20047;-69
2021/03/11 02:54:06;;;;;;;10.50;3.20;;;;;;;0.57;94.76;100490.34;4999940;28;20041;-69
2021/03/11 02:56:33;;;;;;;20.50;7.50;;;;;;;0.23;95.13;100447.09;5008413;28;20477;-70
2021/03/11 02:58:59;;;;;;;3.30;1.80;;;;;;;0.51;95.64;100512.72;5008129;28;20048;-68
2021/03/11 03:01:25;;;;;;;3.00;1.63;;;;;;;0.51;95.88;100500.03;4997617;28;20416;-69
2021/03/11 03:03:52;;;;;;;2.13;1.87;;;;;;;0.46;95.41;100486.97;5002775;28;20029;-69
2021/03/11 03:06:18;;;;;;;31.93;9.30;;;;;;;0.27;95.26;100460.13;5001364;28;20030;-69
2021/03/11 03:08:45;;;;;;;6.53;2.90;;;;;;;0.56;95.37;100516.50;5003959;28;20033;-70
2021/03/11 03:11:12;;;;;;;110.00;71.57;;;;;;;0.51;95.91;100507.66;5003639;28;20029;-71
2021/03/11 03:13:41;;;;;;;22.43;20.10;;;;;;;0.59;95.37;100520.19;5004079;28;20473;-70
2021/03/11 03:16:07;;;;;;;16.57;14.40;;;;;;;0.72;95.06;100523.66;5005202;28;20045;-70
2021/03/11 03:18:33;;;;;;;3.40;2.23;;;;;;;0.74;95.17;100523.03;4997311;28;20038;-71
2021/03/11 03:21:00;;;;;;;3.23;2.53;;;;;;;0.72;94.18;100527.09;4994955;28;20038;-70
2021/03/11 03:23:26;;;;;;;2.23;1.83;;;;;;;0.66;94.36;100513.03;4993695;28;20030;-69
2021/03/11 03:25:52;;;;;;;2.40;1.80;;;;;;;0.81;94.44;100529.47;5012488;28;20041;-69
2021/03/11 03:28:18;;;;;;;3.20;1.80;;;;;;;0.77;93.77;100523.28;4998972;28;20057;-68
2021/03/11 03:30:44;;;;;;;1.30;1.10;;;;;;;0.45;93.78;100496.25;4997094;28;20497;-69
2021/03/11 03:33:11;;;;;;;2.90;1.67;;;;;;;0.71;94.29;100525.34;5039612;28;20128;-70
2021/03/11 03:35:37;;;;;;;4.73;2.40;;;;;;;0.83;93.99;100538.09;5040570;28;20055;-69
2021/03/11 03:38:03;;;;;;;2.70;1.50;;;;;;;0.63;93.79;100508.59;5028083;28;20461;-69
2021/03/11 03:40:29;;;;;;;3.10;1.47;;;;;;;0.52;94.19;100492.53;5050391;28;20152;-69
2021/03/11 03:42:58;;;;;;;27.70;7.90;;;;;;;0.76;93.68;100528.22;5050279;28;20546;-65
2021/03/11 03:45:27;;;;;;;16.63;5.38;;;;;;;0.60;94.08;100495.69;5032940;28;20048;-69
2021/03/11 03:47:59;;;;;;;8.93;3.78;;;;;;;0.73;93.97;100533.94;5050629;28;20072;-68
2021/03/11 03:50:25;;;;;;;26.33;8.30;;;;;;;0.50;93.68;100483.91;5050416;28;20575;-69
2021/03/11 03:52:53;;;;;;;5.17;2.00;;;;;;;0.72;93.67;100546.53;5050501;28;20021;-69
2021/03/11 03:55:20;;;;;;;13.03;4.87;;;;;;;0.73;93.85;100536.47;5050166;28;20071;-69
2021/03/11 03:57:49;;;;;;;7.20;3.53;;;;;;;0.72;93.40;100551.63;5032731;28;20055;-68
2021/03/11 04:00:16;;;;;;;3.45;2.05;;;;;;;0.44;93.77;100501.22;5050041;28;20399;-68
2021/03/11 04:02:43;;;;;;;29.10;9.90;;;;;;;0.83;93.56;100552.47;5049999;28;20017;-66
2021/03/11 04:05:10;;;;;;;4.50;4.00;;;;;;;0.74;93.01;100535.72;5040288;28;20026;-69
2021/03/11 04:07:36;;;;;;;36.73;33.43;;;;;;;0.82;92.91;100538.84;5039839;28;20067;-66
2021/03/11 04:10:07;;;;;;;1.77;1.17;;;;;;;0.97;92.59;100556.94;5049864;28;20637;-69
2021/03/11 04:12:33;;;;;;;3.97;2.57;;;;;;;0.95;92.35;100558.50;5037697;28;20025;-69
2021/03/11 04:14:59;;;;;;;1.00;0.90;;;;;;;0.93;92.25;100543.09;5050763;28;20025;-71
2021/03/11 04:17:28;;;;;;;2.67;1.67;;;;;;;1.06;92.10;100560.19;5050920;28;20104;-69
2021/03/11 04:19:54;;;;;;;1.67;1.30;;;;;;;1.06;91.40;100554.19;5050831;28;20040;-67
2021/03/11 04:22:20;;;;;;;3.00;1.87;;;;;;;0.94;90.85;100534.72;5048484;28;20078;-69
2021/03/11 04:24:46;;;;;;;2.70;1.67;;;;;;;1.03;91.03;100559.94;5045714;28;20451;-70
2021/03/11 04:27:12;;;;;;;1.87;1.27;;;;;;;0.93;91.10;100567.66;5051006;28;20451;-71
2021/03/11 04:29:39;;;;;;;2.07;1.60;;;;;;;0.89;91.46;100563.09;5049207;28;20036;-70
2021/03/11 04:32:05;;;;;;;2.03;1.00;;;;;;;0.93;91.81;100581.22;5051012;28;20114;-67
2021/03/11 04:34:33;;;;;;;2.03;1.37;;;;;;;0.96;91.82;100578.06;5050818;28;20055;-67
2021/03/11 04:36:59;;;;;;;2.27;1.70;;;;;;;1.00;91.45;100582.59;5051095;28;20025;-71
2021/03/11 04:39:25;;;;;;;3.33;1.93;;;;;;;0.91;91.62;100579.34;5051158;28;20400;-69
2021/03/11 04:41:52;;;;;;;4.07;1.67;;;;;;;0.97;91.38;100577.28;5050897;28;20037;-71
2021/03/11 04:44:20;;;;;;;6.40;2.63;;;;;;;0.99;91.38;100580.81;5039146;28;20120;-68
2021/03/11 04:46:46;;;;;;;22.33;9.33;;;;;;;0.98;90.86;100586.66;5030636;28;20037;-69
2021/03/11 04:49:13;;;;;;;8.07;3.07;;;;;;;0.85;90.71;100558.53;5031060;28;20029;-73
2021/03/11 04:51:39;;;;;;;6.50;2.30;;;;;;;1.16;91.18;100601.56;5043909;28;20036;-69
2021/03/11 04:54:05;;;;;;;9.27;4.57;;;;;;;1.12;90.12;100593.72;5050592;28;20115;-71
2021/03/11 04:56:33;;;;;;;14.07;5.67;;;;;;;1.19;90.08;100609.44;5050703;28;20072;-72
2021/03/11 04:58:58;;;;;;;9.60;3.37;;;;;;;1.02;89.13;100572.53;5051064;28;20025;-70
2021/03/11 05:01:27;;;;;;;26.47;10.63;;;;;;;1.23;89.40;100607.22;5050620;28;20392;-70
2021/03/11 05:03:54;;;;;;;3.15;1.70;;;;;;;1.14;89.04;100593.81;5050439;28;20040;-72
2021/03/11 05:06:19;;;;;;;2.13;1.20;;;;;;;1.34;88.37;100623.31;5049377;28;20036;-71
2021/03/11 05:08:45;;;;;;;4.20;2.97;;;;;;;1.12;87.84;100590.28;5050788;28;20021;-71
2021/03/11 05:11:11;;;;;;;1.77;1.20;;;;;;;1.26;87.55;100626.97;5029803;28;20034;-71
2021/03/11 05:13:37;;;;;;;2.10;1.47;;;;;;;1.30;87.90;100631.50;5044550;28;20545;-69
2021/03/11 05:16:03;;;;;;;1.73;1.50;;;;;;;1.22;87.41;100633.47;4999570;28;20492;-69
2021/03/11 05:18:29;;;;;;;0.90;0.90;;;;;;;1.22;87.79;100622.38;5047157;28;20045;-69
2021/03/11 05:20:55;;;;;;;1.53;1.07;;;;;;;1.15;88.29;100620.13;5044747;28;20043;-70
2021/03/11 05:23:20;;;;;;;1.00;1.00;;;;;;;1.20;88.52;100624.81;5049727;28;20100;-70
2021/03/11 05:25:47;;;;;;;0.90;0.90;;;;;;;1.22;87.84;100636.00;5012832;28;20095;-69
2021/03/11 05:28:14;;;;;;;1.43;1.10;;;;;;;1.12;88.79;100648.75;5030625;28;20030;-71
2021/03/11 05:30:39;;;;;;;33.47;8.87;;;;;;;1.23;89.10;100652.13;5012097;28;20046;-72
2021/03/11 05:33:05;;;;;;;30.40;9.43;;;;;;;1.14;89.29;100647.22;5030719;28;20053;-70
2021/03/11 05:35:31;;;;;;;6.90;1.97;;;;;;;1.21;89.25;100661.28;5030900;28;20022;-68
2021/03/11 05:37:56;;;;;;;155.03;35.83;;;;;;;1.15;89.27;100658.28;5030530;28;20056;-69
2021/03/11 05:40:23;;;;;;;60.17;16.87;;;;;;;1.24;89.56;100669.19;5030822;28;20472;-70
2021/03/11 05:42:51;;;;;;;2.53;1.37;;;;;;;1.18;89.34;100669.56;5030856;28;20060;-70
2021/03/11 05:45:18;;;;;;;5.53;2.60;;;;;;;1.13;89.45;100679.41;5030820;28;20111;-70
2021/03/11 05:47:45;;;;;;;29.50;9.17;;;;;;;1.10;90.08;100676.63;5033954;28;20037;-72
2021/03/11 05:50:14;;;;;;;13.27;12.17;;;;;;;1.09;90.22;100681.59;5034176;28;20029;-71
2021/03/11 05:52:39;;;;;;;102.53;92.37;;;;;;;1.11;90.35;100692.78;5033980;28;20025;-70
2021/03/11 05:55:07;;;;;;;3.97;2.37;;;;;;;1.16;90.70;100704.19;5034128;28;20272;-70
2021/03/11 05:57:33;;;;;;;3.47;1.40;;;;;;;1.17;90.93;100715.22;5034276;28;20032;-73
2021/03/11 05:59:59;;;;;;;4.53;2.40;;;;;;;1.23;91.35;100708.97;5034223;28;20051;-70
2021/03/11 06:02:26;;;;;;;5.97;3.50;;;;;;;1.22;91.30;100717.38;5034364;28;20155;-68
2021/03/11 06:04:53;;;;;;;2.60;1.90;;;;;;;1.23;91.15;100725.88;5034010;28;20037;-70
2021/03/11 06:07:21;;;;;;;4.30;2.33;;;;;;;0.95;91.09;100689.00;5033900;28;20029;-70
2021/03/11 06:09:47;;;;;;;4.73;2.90;;;;;;;1.04;91.21;100718.47;5034117;28;20029;-70
2021/03/11 06:12:14;;;;;;;3.60;2.27;;;;;;;0.93;91.58;100705.78;5033962;28;20179;-72
2021/03/11 06:14:44;;;;;;;30.33;9.07;;;;;;;1.16;91.51;100749.97;5033762;28;20029;-70
2021/03/11 06:17:11;;;;;;;4.00;2.13;;;;;;;1.26;92.09;100751.56;5033730;28;20033;-71
2021/03/11 06:19:36;;;;;;;3.07;1.80;;;;;;;1.22;91.33;100754.63;5033724;28;20503;-70
2021/03/11 06:22:02;;;;;;;3.47;1.93;;;;;;;1.09;91.66;100751.13;5033552;28;20037;-70
2021/03/11 06:24:28;;;;;;;1.50;1.10;;;;;;;1.13;91.15;100763.31;5016023;28;20033;-70
2021/03/11 06:26:54;;;;;;;4.20;1.67;;;;;;;1.10;91.67;100765.59;5033611;28;20033;-69
2021/03/11 06:29:34;;;;;;;3.63;2.20;;;;;;;1.21;92.17;100783.38;5033547;28;20083;-70
2021/03/11 06:32:00;;;;;;;4.53;2.43;;;;;;;1.07;91.62;100769.56;5033216;28;20076;-70
2021/03/11 06:34:27;;;;;;;16.17;5.77;;;;;;;1.18;91.22;100786.56;5033510;28;20034;-70
2021/03/11 06:36:53;;;;;;;28.97;10.90;;;;;;;1.18;92.34;100793.31;5016461;28;20026;-70
2021/03/11 06:39:26;;;;;;;11.90;5.17;;;;;;;1.16;91.13;100783.03;5033517;28;20493;-70
2021/03/11 06:41:52;;;;;;;11.03;4.20;;;;;;;0.90;91.43;100746.22;5033383;28;20080;-70
2021/03/11 06:44:18;;;;;;;8.00;7.10;;;;;;;1.09;91.21;100779.09;5033423;28;20432;-70
2021/03/11 06:46:57;;;;;;;11.67;10.47;;;;;;;1.11;91.03;100812.28;5033305;28;20045;-70
2021/03/11 06:49:23;;;;;;;8.27;3.53;;;;;;;0.96;91.79;100794.16;5033461;28;20021;-70
2021/03/11 06:51:48;;;;;;;6.93;3.23;;;;;;;1.07;93.05;100815.31;5033239;28;20084;-70
2021/03/11 06:54:14;;;;;;;6.03;3.20;;;;;;;1.12;93.71;100809.84;5033270;28;20064;-70
2021/03/11 06:56:42;;;;;;;14.67;3.00;;;;;;;1.17;92.52;100832.22;5032889;28;20546;-70
2021/03/11 06:59:11;;;;;;;8.50;2.07;;;;;;;1.12;93.31;100820.03;5032881;28;20033;-70
2021/03/11 07:01:49;;;;;;;2.57;1.40;;;;;;;1.25;93.37;100836.28;5032674;28;20033;-70
2021/03/11 07:04:23;;;;;;;6.00;1.60;;;;;;;1.30;92.89;100834.97;5032581;28;20535;-70
2021/03/11 07:06:48;;;;;;;4.17;1.70;;;;;;;1.36;93.01;100844.75;5032687;28;20036;-70
2021/03/11 07:09:14;;;;;;;32.77;9.80;;;;;;;1.29;92.16;100843.38;5032727;28;20033;-70
2021/03/11 07:12:00;;;;;;;168.77;42.40;;;;;;;1.38;92.76;100849.19;5032539;28;20026;-70
2021/03/11 07:14:26;;;;;;;18.27;6.87;;;;;;;1.40;92.86;100847.66;5032282;28;20488;-70
2021/03/11 07:16:52;;;;;;;4.43;2.00;;;;;;;1.38;92.52;100864.44;5032709;28;20063;-70
2021/03/11 07:19:19;;;;;;;5.97;3.23;;;;;;;1.48;92.62;100876.25;5032686;28;20029;-68
2021/03/11 07:21:46;;;;;;;7.27;2.90;;;;;;;1.46;91.89;100875.25;5032520;28;20408;-70
2021/03/11 07:24:30;;;;;;;42.97;15.20;;;;;;;1.30;91.34;100875.69;5032142;28;20479;-70
2021/03/11 07:27:00;;;;;;;9.53;5.07;;;;;;;1.25;91.76;100870.22;5032507;28;20500;-70
2021/03/11 07:29:25;;;;;;;7.17;4.93;;;;;;;1.26;91.72;100879.63;5032510;28;20378;-70
2021/03/11 07:31:58;;;;;;;16.57;11.90;;;;;;;1.24;92.50;100878.59;5042564;28;20052;-70
2021/03/11 07:34:35;;;;;;;7.40;4.30;;;;;;;1.26;93.41;100866.03;5052326;28;20063;-70
2021/03/11 07:37:01;;;;;;;7.70;4.80;;;;;;;1.39;93.30;100889.13;5052347;28;20032;-70
2021/03/11 07:39:36;;;;;;;7.53;3.40;;;;;;;1.02;93.72;100811.53;5052108;28;20028;-70
2021/03/11 07:42:04;;;;;;;12.37;6.23;;;;;;;1.44;93.25;100895.47;5052094;28;20469;-70
2021/03/11 07:44:30;;;;;;;10.90;6.03;;;;;;;1.49;92.79;100900.94;5017008;28;20106;-70
2021/03/11 07:46:58;;;;;;;5.60;3.27;;;;;;;1.52;92.33;100902.84;5051956;28;20450;-70
2021/03/11 07:49:25;;;;;;;27.63;12.70;;;;;;;1.67;93.29;100905.72;5051918;28;20097;-71
2021/03/11 07:51:52;;;;;;;33.63;11.93;;;;;;;1.48;93.50;100876.25;5017313;28;20045;-70
2021/03/11 07:54:18;;;;;;;73.87;17.73;;;;;;;1.78;93.11;100916.00;5052017;28;20472;-70
2021/03/11 07:56:46;;;;;;;44.87;14.67;;;;;;;1.79;92.48;100929.59;5051854;28;20032;-70
2021/03/11 07:59:12;;;;;;;104.90;30.60;;;;;;;1.81;92.52;100938.25;5017295;28;20102;-70
2021/03/11 08:01:47;;;;;;;28.60;11.97;;;;;;;1.78;92.65;100923.63;5051533;28;20112;-70
2021/03/11 08:04:17;;;;;;;23.23;9.60;;;;;;;1.90;92.41;100945.72;5051830;28;20032;-70
2021/03/11 08:06:42;;;;;;;23.80;11.02;;;;;;;1.77;92.57;100934.56;5051926;28;20028;-71
2021/03/11 08:09:08;;;;;;;26.13;9.87;;;;;;;1.90;92.64;100953.38;5050929;28;20025;-70
2021/03/11 08:11:39;;;;;;;10.60;6.60;;;;;;;1.90;92.19;100946.59;5051705;28;20116;-71
2021/03/11 08:14:24;;;;;;;21.70;19.37;;;;;;;1.88;91.68;100955.81;5051911;28;20029;-71
2021/03/11 08:16:52;;;;;;;8.10;6.80;;;;;;;1.94;92.76;100965.56;5051826;28;20476;-70
2021/03/11 08:19:35;;;;;;;4.93;3.40;;;;;;;1.97;92.79;100964.91;5051710;28;20085;-70
2021/03/11 08:22:02;;;;;;;4.90;3.33;;;;;;;2.01;91.79;100969.50;5051364;28;20074;-70
2021/03/11 08:24:48;;;;;;;5.60;3.53;;;;;;;1.93;91.22;100966.34;5051309;28;20033;-70
2021/03/11 08:27:28;;;;;;;8.10;5.30;;;;;;;1.85;92.25;100941.94;5050693;28;20488;-70
2021/03/11 08:29:54;;;;;;;9.73;6.43;;;;;;;2.06;92.64;100973.31;5051236;28;20032;-70
2021/03/11 08:32:51;;;;;;;6.67;4.60;;;;;;;2.09;92.00;100977.00;5051467;28;20053;-70
2021/03/11 08:35:35;;;;;;;31.07;15.23;;;;;;;2.18;92.13;100970.81;5051205;28;20541;-72
2021/03/11 08:38:01;;;;;;;123.97;36.37;;;;;;;2.18;92.16;100960.63;5051318;28;20515;-71
2021/03/11 08:40:52;;;;;;;32.30;10.70;;;;;;;2.22;91.33;100978.84;5051129;28;20029;-70
2021/03/11 08:43:39;;;;;;;19.73;8.23;;;;;;;2.30;92.16;100991.28;4970214;28;20125;-70
2021/03/11 08:46:19;;;;;;;19.47;8.80;;;;;;;2.15;89.94;100960.41;4970532;28;20486;-70
2021/03/11 08:48:46;;;;;;;13.30;8.10;;;;;;;2.32;90.39;100994.81;4970579;28;20081;-70
2021/03/11 08:51:32;;;;;;;8.30;5.43;;;;;;;2.31;89.63;100995.63;4970051;28;20033;-75
2021/03/11 08:54:02;;;;;;;15.57;7.50;;;;;;;2.34;90.48;101004.38;4970286;28;20039;-71
2021/03/11 08:56:28;;;;;;;15.03;9.97;;;;;;;2.43;91.01;101001.69;4970459;28;20039;-70
2021/03/11 08:59:09;;;;;;;20.60;17.73;;;;;;;2.38;90.28;100996.22;4970398;28;20060;-70
2021/03/11 09:01:53;;;;;;;13.63;8.43;;;;;;;2.35;90.22;101002.72;4970351;28;20047;-70
2021/03/11 09:04:18;;;;;;;13.57;7.93;;;;;;;2.42;91.04;101005.88;4970262;28;20045;-70
2021/03/11 09:07:00;;;;;;;11.07;7.70;;;;;;;2.45;89.67;100996.69;4970252;28;20035;-70
2021/03/11 09:09:40;;;;;;;6.50;3.90;;;;;;;2.53;88.91;100999.06;4970442;28;20039;-70
2021/03/11 09:12:11;;;;;;;6.37;4.50;;;;;;;2.57;87.88;101005.31;4970002;28;20039;-70
2021/03/11 09:14:38;;;;;;;9.53;6.87;;;;;;;2.62;88.79;100983.59;4953698;28;20043;-70
2021/03/11 09:17:19;;;;;;;7.10;4.37;;;;;;;2.75;87.08;101006.72;4969820;28;20042;-70
2021/03/11 09:19:49;;;;;;;31.80;12.47;;;;;;;2.74;84.08;100998.94;4992191;28;20037;-70
2021/03/11 09:22:35;;;;;;;;;;;;;;;2.77;83.98;101011.03;5055387;28;20025;-70
2021/03/11 09:25:13;;;;;;;14.70;8.30;;;;;;;2.77;84.01;101005.94;5053725;28;19912;-70
2021/03/11 09:28:02;;;;;;;37.10;15.13;;;;;;;2.79;84.38;100989.09;5054390;28;20500;-70
2021/03/11 09:30:35;;;;;;;11.30;6.75;;;;;;;2.99;83.21;101004.28;5054595;28;20112;-70
2021/03/11 09:33:17;;;;;;;15.63;7.33;;;;;;;3.06;82.67;101013.25;5054866;28;20140;-70
2021/03/11 09:35:43;;;;;;;9.77;5.87;;;;;;;2.94;81.77;100991.94;5054487;28;20048;-71
2021/03/11 09:38:11;;;;;;;62.43;26.73;;;;;;;3.12;80.82;101020.50;5054496;28;20404;-70
2021/03/11 09:40:46;;;;;;;17.93;16.00;;;;;;;3.14;81.39;101018.94;5054383;28;20547;-70
2021/03/11 09:43:18;;;;;;;13.77;10.97;;;;;;;3.07;79.88;101018.47;5036569;28;20032;-70
2021/03/11 09:45:50;;;;;;;14.40;11.67;;;;;;;3.07;77.74;101020.16;5054316;28;20056;-69
2021/03/11 09:48:27;;;;;;;24.10;10.40;;;;;;;3.05;78.64;101016.56;5054058;28;20450;-70
2021/03/11 09:51:07;;;;;;;29.13;15.83;;;;;;;3.13;79.72;101027.34;5054417;28;20029;-71
2021/03/11 09:53:40;;;;;;;10.47;6.30;;;;;;;3.28;78.77;101027.63;5047045;28;20041;-71
2021/03/11 09:56:14;;;;;;;10.80;5.77;;;;;;;3.32;79.66;101033.09;5043840;28;20033;-70
2021/03/11 09:58:45;;;;;;;13.47;8.90;;;;;;;3.38;77.15;101019.91;5041880;28;20044;-70
2021/03/11 10:01:11;;;;;;;6.40;4.10;;;;;;;3.38;73.47;101033.53;5033786;28;20025;-71
2021/03/11 10:03:36;;;;;;;12.10;6.47;;;;;;;3.48;74.26;101041.91;5033728;28;20029;-70
2021/03/11 10:06:05;;;;;;;13.03;7.87;;;;;;;3.55;74.95;101044.13;5039233;28;20044;-71
2021/03/11 10:08:38;;;;;;;7.87;4.50;;;;;;;3.60;76.44;101030.06;5044489;28;20051;-70
2021/03/11 10:11:16;;;;;;;85.33;26.67;;;;;;;3.62;73.22;101041.25;5044330;28;20109;-71
2021/03/11 10:14:02;;;;;;;69.23;24.70;;;;;;;3.45;72.51;101014.50;5002077;28;20532;-70
2021/03/11 10:17:03;;;;;;;8.67;6.40;;;;;;;3.51;73.77;101037.00;5002896;28;20116;-70
2021/03/11 10:19:28;;;;;;;69.67;22.60;;;;;;;3.30;72.79;101005.69;4949273;29;20074;-70
2021/03/11 10:21:55;;;;;;;8.97;6.13;;;;;;;3.50;73.36;101054.00;4953536;28;20140;-70
2021/03/11 10:24:43;;;;;;;9.20;6.20;;;;;;;3.50;77.07;101056.56;4953084;29;20040;-70
2021/03/11 10:27:31;;;;;;;9.37;6.77;;;;;;;3.34;78.66;101029.00;4950149;29;20655;-69
2021/03/11 10:30:10;;;;;;;11.50;6.73;;;;;;;3.71;77.93;101064.03;4942662;29;20066;-72
2021/03/11 10:32:41;;;;;;;12.50;7.80;;;;;;;3.88;77.84;101072.94;4945570;29;20195;-71
2021/03/11 10:35:08;;;;;;;12.60;7.70;;;;;;;4.09;76.94;101070.16;4943841;29;20046;-74
2021/03/11 10:37:35;;;;;;;12.90;11.60;;;;;;;4.03;75.00;101035.72;4944685;29;20054;-71
2021/03/11 10:40:04;;;;;;;9.10;7.33;;;;;;;4.07;75.15;101031.72;4950240;29;20104;-72
2021/03/11 10:42:39;;;;;;;7.57;5.45;;;;;;;4.37;73.87;101062.81;4952660;29;20047;-71
2021/03/11 10:45:05;;;;;;;29.20;16.80;;;;;;;4.31;74.15;101068.41;4963163;28;20046;-70
2021/03/11 10:47:31;;;;;;;9.93;6.87;;;;;;;4.11;74.10;101018.41;4972363;28;20105;-71
2021/03/11 10:49:56;;;;;;;81.73;32.10;;;;;;;4.25;75.60;101031.25;4972361;28;20030;-71
2021/03/11 10:52:22;;;;;;;32.57;12.70;;;;;;;4.38;75.53;101049.25;4972102;28;20038;-71
2021/03/11 10:54:48;;;;;;;118.23;37.40;;;;;;;4.53;74.93;101062.25;5005228;28;20037;-71
2021/03/11 10:57:16;;;;;;;34.10;15.77;;;;;;;4.41;75.05;101030.69;5053260;28;20029;-71
2021/03/11 10:59:55;;;;;;;30.77;14.43;;;;;;;4.63;74.45;101072.34;5053092;28;20021;-71
2021/03/11 11:02:22;;;;;;;11.30;8.25;;;;;;;4.44;72.27;101030.94;5052966;28;20029;-71
2021/03/11 11:04:49;;;;;;;10.97;7.90;;;;;;;4.59;71.46;101070.34;5053067;28;20116;-70
2021/03/11 11:07:15;;;;;;;36.50;19.87;;;;;;;4.66;72.52;101074.22;5052563;28;20025;-70
2021/03/11 11:09:43;;;;;;;13.93;10.93;;;;;;;4.75;72.62;101066.31;5051689;28;20032;-71
2021/03/11 11:12:10;;;;;;;14.93;10.52;;;;;;;4.84;70.59;101066.97;5026646;28;20046;-71
2021/03/11 11:14:36;;;;;;;38.67;23.53;;;;;;;4.73;71.32;101029.50;5028206;28;20042;-71
2021/03/11 11:17:03;;;;;;;11.77;8.10;;;;;;;4.56;69.02;100987.41;5029363;28;20491;-71
2021/03/11 11:19:28;;;;;;;11.57;7.78;;;;;;;4.92;68.45;101024.91;5029281;28;20489;-71
2021/03/11 11:21:54;;;;;;;8.95;7.63;;;;;;;5.30;70.22;101059.00;5029413;28;20127;-69
2021/03/11 11:24:19;;;;;;;13.82;11.02;;;;;;;5.19;67.46;101068.50;5029630;28;20039;-71
2021/03/11 11:26:45;;;;;;;9.95;7.78;;;;;;;5.13;66.50;101053.59;5029193;28;20050;-71
2021/03/11 11:29:10;;;;;;;11.37;7.67;;;;;;;5.16;62.83;101061.50;5030071;28;20040;-69
2021/03/11 11:31:36;;;;;;;18.93;11.37;;;;;;;4.89;63.58;101065.59;5028574;28;20050;-71
2021/03/11 11:34:01;;;;;;;37.25;20.05;;;;;;;4.86;65.72;101048.38;5030244;28;20128;-71
2021/03/11 11:36:27;;;;;;;138.75;51.00;;;;;;;4.88;65.82;101053.59;5028875;28;20526;-71